Dessau, Texas
Current Conditions -  °F | °C
As of 9:15 PM on Tuesday 25 Nov 2014 (Local Time) from KEDC Reporting Station
Few Clouds Few Clouds  
Wind Chill:   Ceiling: Unl
Heat Index:   Visibility: 10mi
Dew Point: -1°   Wind: 3mph
Humidity: 50%   Direction: 190°S
Pressure: 30.21"   Gusts: NA
Location:  30.3795°N, 97.676°W
Report Text: KEDC 260315Z AUTO 19003KT 10SM FEW044 09/M01 A3021 RMK AO2
Loading
Personal Weather Stations






























Interactive Weather Map New forecast layout! Learn more

10-Day Weather Forecast

Advertisements
Track Severe Weather on mobile